Time;durP1;ratioP1;P1;durP2;ratioP2;P2;SDS_P1;SDS_P2;PMS_P1;PMS_P2;Temp;Humidity;BMP_temperature;BMP_pressure;BME280_temperature;BME280_humidity;BME280_pressure;Samples;Min_cycle;Max_cycle;Signal;HPM_P1;HPM_P2
2021/12/16 00:01:50;;;;;;;;;17.25;12.00;;;;;4.38;89.80;101979.63;5054450;28;11664;-73
2021/12/16 00:08:04;;;;;;;;;26.75;24.75;;;;;4.61;89.83;101973.84;5052792;28;11485;-74
2021/12/16 00:33:44;;;;;;;;;20.50;20.50;;;;;4.66;89.79;101962.09;5033023;28;11519;-73
2021/12/16 00:36:42;;;;;;;;;24.50;24.25;;;;;4.79;89.54;101964.41;5021054;28;11533;-73
2021/12/16 00:39:38;;;;;;;;;22.75;22.75;;;;;4.73;89.31;101952.56;5053697;28;11529;-73
2021/12/16 00:42:51;;;;;;;;;23.00;20.25;;;;;4.73;89.54;101954.47;5054193;28;11576;-72
2021/12/16 00:49:07;;;;;;;;;18.75;18.75;;;;;4.68;89.96;101962.66;5052582;28;11605;-73
2021/12/16 00:55:49;;;;;;;;;22.00;22.00;;;;;4.62;90.76;101971.94;5028599;28;11589;-73
2021/12/16 00:58:52;;;;;;;;;17.25;17.25;;;;;4.32;91.21;101976.00;5051725;28;12058;-72
2021/12/16 01:33:57;;;;;;;;;22.50;22.50;;;;;3.79;93.16;101994.00;5053653;28;12217;-73
2021/12/16 01:41:15;;;;;;;;;28.25;28.00;;;;;3.99;92.90;102001.66;5051436;28;11627;-73
2021/12/16 01:50:04;;;;;;;;;25.50;24.00;;;;;3.81;92.81;102004.69;5051522;28;11528;-73
2021/12/16 01:56:28;;;;;;;;;25.75;25.25;;;;;4.14;91.46;101998.25;5051654;28;11598;-73
2021/12/16 01:59:33;;;;;;;;;27.00;25.75;;;;;3.78;92.36;101994.25;5037915;28;11523;-73
2021/12/16 02:08:40;;;;;;;;;22.00;22.00;;;;;3.71;92.88;102005.38;5051452;28;11579;-73
2021/12/16 02:28:23;;;;;;;;;31.00;31.00;;;;;3.41;93.85;102016.72;5032700;28;12411;-73
2021/12/16 02:37:00;;;;;;;;;35.00;28.75;;;;;3.21;94.68;102019.94;5035238;28;11690;-73
2021/12/16 02:39:56;;;;;;;;;20.75;19.50;;;;;3.27;94.90;102007.19;5049815;28;11553;-73
2021/12/16 02:43:01;;;;;;;;;29.25;29.25;;;;;3.36;95.09;102011.16;5055146;28;11632;-73
2021/12/16 02:49:10;;;;;;;;;33.25;30.75;;;;;3.58;94.15;102014.78;5064426;28;11513;-72
2021/12/16 02:52:07;;;;;;;;;25.25;24.50;;;;;3.61;93.90;102019.75;5054808;28;12377;-72
2021/12/16 02:55:05;;;;;;;;;37.00;37.00;;;;;3.70;93.59;102014.69;5041911;28;11521;-72
2021/12/16 02:58:01;;;;;;;;;34.75;33.25;;;;;3.85;93.16;102019.53;5056729;28;11626;-72
2021/12/16 03:01:07;;;;;;;;;33.50;33.00;;;;;3.81;92.31;102023.84;5042121;28;11530;-72
2021/12/16 03:04:05;;;;;;;;;28.50;25.25;;;;;3.61;92.19;102022.50;5034609;28;11556;-72
2021/12/16 03:07:03;;;;;;;;;33.75;31.75;;;;;3.70;92.71;102005.63;5034748;28;12317;-73
2021/12/16 03:10:29;;;;;;;;;16.75;16.75;;;;;3.67;92.22;102012.41;5045560;28;11610;-73
2021/12/16 03:13:34;;;;;;;;;22.00;22.00;;;;;3.60;92.41;102011.78;5054551;28;11518;-73
2021/12/16 03:16:55;;;;;;;;;22.00;20.00;;;;;3.62;93.06;102010.47;5054262;28;11530;-72
2021/12/16 03:20:10;;;;;;;;;30.00;29.25;;;;;3.42;92.78;102012.06;5054191;28;11594;-73
2021/12/16 03:23:30;;;;;;;;;31.50;28.25;;;;;3.44;93.14;102007.16;5040979;28;11721;-72
2021/12/16 03:29:58;;;;;;;;;26.00;26.00;;;;;3.44;93.00;102002.53;5045327;28;11543;-72
2021/12/16 03:38:50;;;;;;;;;19.75;19.75;;;;;3.35;93.26;102004.84;5052986;28;11534;-72
2021/12/16 03:41:45;;;;;;;;;0.00;0.00;;;;;3.40;93.44;101993.19;5041060;28;11601;-72
2021/12/16 03:44:59;;;;;;;;;25.50;19.00;;;;;3.44;93.11;101996.22;5027187;28;11469;-72
2021/12/16 03:47:55;;;;;;;;;19.75;19.75;;;;;3.55;92.39;101984.38;5053632;28;11670;-72
2021/12/16 03:50:51;;;;;;;;;19.00;16.75;;;;;3.23;92.97;101986.91;5054522;28;11489;-72
2021/12/16 03:53:50;;;;;;;;;26.00;24.75;;;;;3.30;93.72;101993.03;5042049;28;11557;-73
2021/12/16 03:56:46;;;;;;;;;24.00;24.00;;;;;3.45;93.05;101987.78;5033826;28;11539;-73
2021/12/16 03:59:42;;;;;;;;;27.75;26.75;;;;;3.49;92.58;101975.25;5051671;28;11530;-73
2021/12/16 04:02:38;;;;;;;;;18.25;17.00;;;;;3.50;92.53;101971.44;5044590;28;11607;-73
2021/12/16 04:05:35;;;;;;;;;14.75;14.75;;;;;3.39;92.15;101971.56;5034106;28;11554;-73
2021/12/16 04:08:31;;;;;;;;;16.25;16.00;;;;;3.32;92.90;101966.25;5032750;28;11574;-73
2021/12/16 04:11:38;;;;;;;;;21.25;21.25;;;;;3.61;91.45;101970.50;5019947;28;11590;-73
2021/12/16 04:14:36;;;;;;;;;19.75;19.75;;;;;3.57;91.78;101979.47;5017124;28;11602;-73
2021/12/16 04:17:33;;;;;;;;;18.50;17.75;;;;;3.35;92.40;101973.94;5012777;28;11596;-73
2021/12/16 04:20:29;;;;;;;;;18.75;18.00;;;;;3.34;92.25;101972.31;5016566;28;11676;-73
2021/12/16 04:23:24;;;;;;;;;17.25;17.25;;;;;3.40;92.32;101970.47;5030352;28;11600;-72
2021/12/16 04:26:21;;;;;;;;;18.50;18.50;;;;;3.50;92.29;101971.44;5013941;28;11572;-73
2021/12/16 04:29:17;;;;;;;;;19.00;19.00;;;;;3.30;92.70;101973.91;5013124;28;11572;-72
2021/12/16 04:31:46;;;;;;;;;21.25;19.25;;;;;3.27;93.32;101974.38;5014779;28;11678;-72
2021/12/16 04:34:42;;;;;;;;;30.75;30.75;;;;;3.38;92.67;101967.16;5006699;28;11591;-73
2021/12/16 04:37:38;;;;;;;;;29.50;24.75;;;;;3.36;92.87;101981.06;5012277;28;11585;-73
2021/12/16 04:40:36;;;;;;;;;29.00;29.00;;;;;3.58;92.12;101981.94;5024682;28;11619;-73
2021/12/16 04:43:40;;;;;;;;;29.25;27.50;;;;;3.61;91.78;101978.72;5016886;28;11591;-73
2021/12/16 04:46:36;;;;;;;;;22.50;22.00;;;;;3.33;92.70;101976.94;4994024;28;12412;-73
2021/12/16 04:49:32;;;;;;;;;17.25;17.25;;;;;3.26;93.27;101970.00;4993376;28;11607;-73
2021/12/16 04:52:29;;;;;;;;;22.50;17.25;;;;;3.12;93.96;101985.09;4994460;28;11586;-73
2021/12/16 04:55:24;;;;;;;;;31.75;31.75;;;;;3.40;93.44;101984.16;5026347;28;11589;-73
2021/12/16 04:58:20;;;;;;;;;34.00;33.00;;;;;3.33;93.38;101985.16;5033171;28;11600;-73
2021/12/16 05:01:16;;;;;;;;;36.50;36.50;;;;;3.47;93.21;101985.63;5033154;28;11617;-73
2021/12/16 05:04:12;;;;;;;;;31.75;31.75;;;;;3.28;93.54;101984.22;5040382;28;11523;-73
2021/12/16 05:07:09;;;;;;;;;44.75;37.50;;;;;3.43;93.37;101989.09;5064001;28;12391;-73
2021/12/16 05:10:11;;;;;;;;;40.00;38.50;;;;;3.47;93.13;101990.28;5040426;28;11541;-73
2021/12/16 05:13:07;;;;;;;;;42.50;39.50;;;;;3.58;92.50;101990.16;5052482;28;11690;-73
2021/12/16 05:16:05;;;;;;;;;37.00;36.25;;;;;3.55;92.84;101990.66;5031816;28;11526;-73
2021/12/16 05:19:01;;;;;;;;;23.25;23.25;;;;;3.38;92.60;101989.88;5042469;28;11618;-73
2021/12/16 05:24:15;;;;;;;;;20.75;20.50;;;;;3.31;93.03;102000.16;5053989;28;11598;-72
2021/12/16 05:25:26;;;;;;;;;24.25;24.25;;;;;3.39;93.00;102005.19;5051846;28;11601;-72
2021/12/16 05:28:23;;;;;;;;;24.50;23.50;;;;;3.15;93.29;102012.75;5051492;28;11589;-72
2021/12/16 05:31:21;;;;;;;;;40.00;31.00;;;;;3.45;92.93;102031.56;5036613;28;11527;-72
2021/12/16 05:34:18;;;;;;;;;26.75;26.75;;;;;3.41;92.33;102038.59;5051051;28;11519;-72
2021/12/16 05:37:13;;;;;;;;;34.00;31.25;;;;;3.53;91.80;102035.78;5051537;28;11729;-70
2021/12/16 05:40:10;;;;;;;;;37.75;37.75;;;;;3.46;91.55;102035.94;5051509;28;11558;-71
2021/12/16 05:43:09;;;;;;;;;45.33;42.33;;;;;3.44;91.75;102048.19;5051497;28;11561;-71
2021/12/16 05:46:07;;;;;;;;;31.75;31.25;;;;;3.32;91.97;102045.56;5051733;28;11519;-70
2021/12/16 05:49:08;;;;;;;;;26.50;26.25;;;;;3.25;91.94;102053.09;5053449;28;12422;-71
2021/12/16 05:52:04;;;;;;;;;30.50;27.50;;;;;3.37;92.06;102053.00;5056305;28;11540;-70
2021/12/16 05:55:00;;;;;;;;;34.25;27.00;;;;;3.26;92.42;102049.28;5057792;28;11560;-70
2021/12/16 05:57:56;;;;;;;;;27.00;22.75;;;;;3.25;92.85;102045.72;5051664;28;11606;-70
2021/12/16 06:01:00;;;;;;;;;30.25;26.75;;;;;3.19;92.62;102054.91;5051432;28;11542;-71
2021/12/16 06:03:57;;;;;;;;;26.25;26.25;;;;;3.53;92.30;102063.13;5054780;28;11609;-71
2021/12/16 06:06:52;;;;;;;;;36.00;34.50;;;;;3.66;91.58;102056.47;5043624;28;11540;-71
2021/12/16 06:09:48;;;;;;;;;30.75;27.00;;;;;3.50;91.65;102060.88;5055405;28;11572;-71
2021/12/16 06:12:44;;;;;;;;;29.50;27.75;;;;;3.40;91.76;102067.03;5035072;28;11543;-71
2021/12/16 06:28:30;;;;;;;;;30.75;28.00;;;;;3.44;92.49;102064.59;5055318;28;11511;-71
2021/12/16 06:31:26;;;;;;;;;36.50;34.75;;;;;3.64;92.19;102075.88;5055156;28;11595;-71
2021/12/16 06:34:22;;;;;;;;;22.25;22.25;;;;;3.52;92.23;102061.44;5055151;28;11544;-72
2021/12/16 06:37:17;;;;;;;;;24.25;24.25;;;;;3.64;91.59;102053.97;5051019;28;12402;-72
2021/12/16 06:40:15;;;;;;;;;20.50;16.00;;;;;3.31;92.46;102054.84;5055006;28;11605;-70
2021/12/16 06:43:13;;;;;;;;;20.00;20.00;;;;;3.25;92.74;102059.41;5041432;28;11507;-71
2021/12/16 06:46:13;;;;;;;;;20.00;16.00;;;;;3.09;93.52;102056.66;5054535;28;12253;-71
2021/12/16 06:49:11;;;;;;;;;21.75;21.75;;;;;3.15;93.42;102056.50;5040751;28;11517;-70
2021/12/16 06:52:10;;;;;;;;;19.75;19.75;;;;;3.30;93.13;102066.88;5054493;28;11562;-71
2021/12/16 06:55:14;;;;;;;;;17.75;17.75;;;;;3.32;93.06;102056.50;5054435;28;11549;-70
2021/12/16 06:58:21;;;;;;;;;19.25;19.25;;;;;3.33;93.20;102060.91;5054823;28;12256;-71
2021/12/16 07:01:38;;;;;;;;;20.00;20.00;;;;;3.26;93.65;102073.91;5054571;28;11517;-70
2021/12/16 07:04:36;;;;;;;;;20.50;20.50;;;;;3.26;93.15;102062.97;5054384;28;12322;-71
2021/12/16 07:07:32;;;;;;;;;18.75;18.75;;;;;3.33;93.35;102075.41;5041008;28;12200;-71
2021/12/16 07:10:29;;;;;;;;;30.50;28.75;;;;;3.54;92.94;102073.81;5054104;28;11583;-71
2021/12/16 07:13:37;;;;;;;;;22.50;22.25;;;;;3.44;92.35;102068.16;5039680;28;11593;-71
2021/12/16 07:16:32;;;;;;;;;25.75;25.75;;;;;3.60;92.44;102070.09;5054694;28;11507;-71
2021/12/16 07:19:28;;;;;;;;;23.00;23.00;;;;;3.70;91.65;102068.56;5054503;28;12331;-72
2021/12/16 07:22:23;;;;;;;;;24.00;21.50;;;;;3.67;92.16;102067.16;5065377;28;11531;-73
2021/12/16 07:25:20;;;;;;;;;21.00;21.00;;;;;3.59;91.60;102064.84;5055543;28;11514;-72
2021/12/16 07:28:16;;;;;;;;;20.75;20.75;;;;;3.43;91.55;102061.03;5053633;28;11549;-73
2021/12/16 07:31:12;;;;;;;;;18.25;18.25;;;;;3.36;91.94;102052.19;5053753;28;11515;-71
2021/12/16 07:34:09;;;;;;;;;17.50;17.50;;;;;3.49;92.33;102057.31;5053828;28;11675;-73
2021/12/16 07:37:08;;;;;;;;;25.50;23.75;;;;;3.47;91.92;102058.66;5053367;28;11608;-73
2021/12/16 07:40:08;;;;;;;;;22.25;22.25;;;;;3.70;91.13;102052.16;5054008;28;11532;-69
2021/12/16 07:45:59;;;;;;;;;17.25;17.25;;;;;3.52;90.86;102053.25;5053249;28;12290;-69
2021/12/16 07:48:55;;;;;;;;;20.50;20.50;;;;;3.68;91.01;102048.81;5064923;28;11525;-72
2021/12/16 07:51:51;;;;;;;;;28.75;28.75;;;;;3.81;90.62;102048.47;5053470;28;11497;-72
2021/12/16 07:54:48;;;;;;;;;27.75;27.75;;;;;4.07;90.33;102053.22;5065017;28;11609;-73
2021/12/16 07:57:44;;;;;;;;;36.50;32.50;;;;;3.85;90.09;102049.63;5052947;28;11531;-73
2021/12/16 08:00:41;;;;;;;;;28.50;27.75;;;;;3.85;90.41;102050.47;5053392;28;11650;-73
2021/12/16 08:03:38;;;;;;;;;38.00;36.75;;;;;3.86;90.34;102038.44;5033484;28;11549;-73
2021/12/16 08:06:34;;;;;;;;;22.50;22.25;;;;;3.71;90.42;102048.34;5033507;28;11615;-73
2021/12/16 08:09:32;;;;;;;;;25.50;24.50;;;;;3.82;90.43;102053.69;5040367;28;11592;-72
2021/12/16 08:12:28;;;;;;;;;19.00;17.50;;;;;3.86;90.35;102046.63;5053016;28;11738;-70
2021/12/16 08:15:24;;;;;;;;;27.00;26.25;;;;;3.90;90.07;102053.25;5053170;28;11757;-70
2021/12/16 08:18:20;;;;;;;;;28.50;26.50;;;;;3.95;89.79;102044.28;5053063;28;11595;-70
2021/12/16 08:21:16;;;;;;;;;21.50;20.25;;;;;3.70;90.02;102046.69;5058177;28;11611;-69
2021/12/16 08:24:14;;;;;;;;;24.50;24.50;;;;;3.84;90.31;102047.97;5043182;28;11681;-69
2021/12/16 08:27:10;;;;;;;;;25.50;24.50;;;;;3.63;89.58;102047.69;5039313;28;11609;-69
2021/12/16 08:30:12;;;;;;;;;28.75;28.75;;;;;3.87;89.67;102052.94;5070257;28;11501;-68
2021/12/16 08:33:11;;;;;;;;;22.75;22.75;;;;;3.89;89.49;102058.97;5021171;28;11551;-69
2021/12/16 08:36:09;;;;;;;;;14.00;14.00;;;;;3.82;89.04;102052.84;5032704;28;11540;-69
2021/12/16 08:39:08;;;;;;;;;21.25;21.00;;;;;3.94;88.64;102041.81;5039881;28;11565;-69
2021/12/16 08:42:09;;;;;;;;;23.25;23.25;;;;;4.06;88.40;102039.75;5042569;28;11505;-70
2021/12/16 08:45:09;;;;;;;;;29.75;29.25;;;;;4.00;88.18;102041.63;5054157;28;11550;-69
2021/12/16 08:48:05;;;;;;;;;25.75;25.75;;;;;4.07;88.53;102036.78;5038852;28;11560;-69
2021/12/16 08:51:02;;;;;;;;;31.50;31.50;;;;;4.27;87.87;102024.41;5051955;28;11596;-69
2021/12/16 08:53:30;;;;;;;;;18.00;16.75;;;;;4.37;86.93;102028.13;5053078;28;11651;-70
2021/12/16 08:56:27;;;;;;;;;30.00;28.00;;;;;4.22;86.67;102022.47;5063593;28;11702;-69
2021/12/16 08:59:24;;;;;;;;;32.00;32.00;;;;;4.40;86.63;102022.13;5052212;28;11579;-70
2021/12/16 09:02:22;;;;;;;;;35.50;34.50;;;;;4.25;85.80;102023.84;5051697;28;11739;-69
2021/12/16 09:05:20;;;;;;;;;29.75;27.50;;;;;4.06;85.66;102026.06;5038752;28;11569;-69
2021/12/16 09:08:15;;;;;;;;;23.00;22.00;;;;;4.26;86.63;102017.28;5038450;28;11529;-69
2021/12/16 09:11:18;;;;;;;;;40.00;34.00;;;;;4.36;85.55;102018.22;5038942;28;11579;-70
2021/12/16 09:14:13;;;;;;;;;32.50;30.00;;;;;4.71;84.96;102011.47;5018670;28;11575;-70
2021/12/16 09:17:14;;;;;;;;;30.25;29.75;;;;;4.80;84.32;102011.81;5032043;28;11616;-70
2021/12/16 09:20:11;;;;;;;;;23.00;23.00;;;;;4.61;84.07;102014.94;5018832;28;11589;-70
2021/12/16 09:23:09;;;;;;;;;32.25;28.25;;;;;4.52;84.71;102005.50;5043282;28;11523;-70
2021/12/16 09:26:05;;;;;;;;;27.75;25.00;;;;;4.46;84.69;102012.88;5051467;28;11562;-70
2021/12/16 09:29:01;;;;;;;;;31.75;31.75;;;;;4.36;84.26;102012.75;5051842;28;11597;-70
2021/12/16 09:31:58;;;;;;;;;34.25;27.00;;;;;4.28;85.16;102006.91;5051503;28;11497;-69
2021/12/16 09:34:55;;;;;;;;;25.75;22.00;;;;;4.15;85.39;102006.22;5037394;28;11669;-69
2021/12/16 09:37:38;;;;;;;;;34.00;33.75;;;;;4.27;84.76;102003.34;5048476;28;12307;-70
2021/12/16 09:40:35;;;;;;;;;38.25;32.00;;;;;4.35;84.44;102004.78;5051618;28;11486;-69
2021/12/16 09:43:38;;;;;;;;;18.50;18.50;;;;;4.30;84.33;101993.78;5037754;28;11726;-69
2021/12/16 09:46:33;;;;;;;;;21.75;21.75;;;;;3.90;84.80;101997.69;5031550;28;11541;-69
2021/12/16 09:49:29;;;;;;;;;24.75;21.25;;;;;4.10;84.84;101987.00;5051382;28;11518;-69
2021/12/16 09:52:25;;;;;;;;;28.75;26.50;;;;;3.78;86.29;101991.50;5050541;28;11520;-69
2021/12/16 09:55:21;;;;;;;;;29.00;29.00;;;;;3.74;86.58;101982.97;5051645;28;11522;-70
2021/12/16 09:58:18;;;;;;;;;39.75;38.50;;;;;3.76;86.85;101985.47;5039948;28;11510;-70
2021/12/16 10:01:15;;;;;;;;;33.00;33.00;;;;;3.84;86.22;101983.13;5051683;28;11585;-70
2021/12/16 10:04:15;;;;;;;;;25.25;25.25;;;;;3.72;86.27;101974.19;5051314;28;11534;-70
2021/12/16 10:07:20;;;;;;;;;25.25;25.25;;;;;3.65;86.33;101979.03;5063328;28;11543;-70
2021/12/16 10:10:20;;;;;;;;;29.25;26.50;;;;;3.84;85.86;101961.22;5051134;28;12299;-69
2021/12/16 10:13:23;;;;;;;;;20.00;20.00;;;;;3.82;85.80;101962.53;5050928;28;11651;-70
2021/12/16 10:19:34;;;;;;;;;23.25;21.75;;;;;3.81;85.43;101958.16;5051053;28;11541;-71
2021/12/16 10:22:39;;;;;;;;;25.25;24.75;;;;;3.75;85.31;101951.78;5063990;28;11779;-70
2021/12/16 10:25:38;;;;;;;;;15.75;15.25;;;;;4.00;84.65;101958.69;5041786;28;11636;-69
2021/12/16 10:28:44;;;;;;;;;18.50;18.50;;;;;3.86;84.75;101953.59;5041452;28;11602;-69
2021/12/16 10:31:39;;;;;;;;;27.50;27.00;;;;;3.72;85.17;101954.22;5046821;28;11562;-69
2021/12/16 10:34:35;;;;;;;;;28.00;26.50;;;;;3.63;85.90;101954.66;5018111;28;11582;-70
2021/12/16 10:37:33;;;;;;;;;27.75;27.75;;;;;3.92;85.72;101948.19;5056044;28;11596;-71
2021/12/16 10:40:32;;;;;;;;;28.75;28.75;;;;;3.93;85.50;101947.91;5037549;28;11731;-69
2021/12/16 10:43:36;;;;;;;;;34.00;34.00;;;;;4.02;85.77;101940.91;5037713;28;11725;-71
2021/12/16 10:46:37;;;;;;;;;26.25;24.25;;;;;3.95;86.16;101939.44;5050963;28;11586;-70
2021/12/16 10:49:36;;;;;;;;;31.75;31.50;;;;;4.16;85.53;101936.69;5053583;28;11666;-71
2021/12/16 10:52:32;;;;;;;;;46.00;42.25;;;;;4.22;85.86;101920.28;5041290;28;11621;-70
2021/12/16 10:55:27;;;;;;;;;38.75;35.25;;;;;4.13;85.26;101918.00;5054841;28;11681;-70
2021/12/16 10:58:46;;;;;;;;;42.25;40.00;;;;;4.19;85.96;101908.78;5055197;28;11597;-71
2021/12/16 11:01:45;;;;;;;;;53.75;46.75;;;;;4.12;86.13;101910.06;5054744;28;12518;-70
2021/12/16 11:04:51;;;;;;;;;38.50;37.50;;;;;4.05;86.60;101899.31;5054546;28;11616;-71
2021/12/16 11:07:54;;;;;;;;;23.25;23.25;;;;;3.72;86.76;101894.84;5054675;28;11704;-71
2021/12/16 11:10:50;;;;;;;;;28.00;24.75;;;;;3.58;86.40;101888.94;5054749;28;11592;-70
2021/12/16 11:13:45;;;;;;;;;27.50;24.50;;;;;3.70;86.54;101890.72;5054264;28;12370;-70
2021/12/16 11:16:41;;;;;;;;;21.50;21.50;;;;;3.73;86.06;101890.19;5041127;28;11564;-72
2021/12/16 11:19:56;;;;;;;;;31.00;29.75;;;;;3.97;85.45;101883.34;5041182;28;11569;-70
2021/12/16 11:23:02;;;;;;;;;30.00;28.75;;;;;3.94;85.41;101883.03;5054533;28;11604;-70
2021/12/16 11:26:00;;;;;;;;;22.00;21.50;;;;;3.81;85.34;101881.53;5053951;28;11575;-70
2021/12/16 11:28:56;;;;;;;;;29.25;26.00;;;;;3.64;86.38;101867.94;5054159;28;11621;-70
2021/12/16 11:31:55;;;;;;;;;23.25;23.25;;;;;3.74;86.74;101873.50;5054453;28;11597;-71
2021/12/16 11:34:50;;;;;;;;;28.50;27.50;;;;;3.78;86.63;101866.47;5040999;28;12405;-71
2021/12/16 11:37:47;;;;;;;;;36.25;32.50;;;;;3.60;87.22;101870.38;5054365;28;11614;-70
2021/12/16 11:40:54;;;;;;;;;37.25;35.00;;;;;3.80;86.54;101877.16;5054042;28;11610;-71
2021/12/16 11:44:09;;;;;;;;;29.50;27.75;;;;;3.69;86.65;101870.75;5054121;28;11599;-71
2021/12/16 11:47:26;;;;;;;;;22.25;20.00;;;;;3.41;86.97;101870.94;5040533;28;11630;-71
2021/12/16 11:50:40;;;;;;;;;11.25;11.25;;;;;3.47;86.86;101872.66;5040820;28;11601;-70
2021/12/16 11:53:21;;;;;;;;;39.25;36.25;;;;;3.54;86.20;101879.59;5053786;28;11536;-70
2021/12/16 11:56:19;;;;;;;;;18.25;18.25;;;;;3.37;86.05;101876.06;5052360;28;12300;-70
2021/12/16 11:59:35;;;;;;;;;51.67;44.67;;;;;3.62;85.63;101872.84;5051925;28;11874;-71
2021/12/16 12:02:35;;;;;;;;;49.00;44.67;;;;;3.68;85.98;101874.56;5041307;28;12285;-72
2021/12/16 12:05:34;;;;;;;;;38.33;38.00;;;;;3.89;85.50;101870.13;5040345;28;11544;-71
2021/12/16 12:08:31;;;;;;;;;23.75;23.75;;;;;3.46;85.79;101874.56;5039057;28;11564;-70
2021/12/16 12:11:33;;;;;;;;;42.00;33.75;;;;;3.44;87.04;101871.25;5053439;28;11676;-70
2021/12/16 12:14:36;;;;;;;;;23.75;19.75;;;;;3.46;86.14;101871.84;5064924;28;11543;-71
2021/12/16 12:17:44;;;;;;;;;36.50;32.25;;;;;3.71;86.62;101873.22;5052972;28;11658;-71
2021/12/16 12:20:41;;;;;;;;;32.25;30.75;;;;;3.80;86.05;101866.19;5052398;28;12289;-70
2021/12/16 12:23:09;;;;;;;;;36.50;30.00;;;;;3.91;86.19;101870.72;5053898;28;11602;-70
2021/12/16 12:26:04;;;;;;;;;44.00;42.00;;;;;3.62;85.93;101873.66;5055212;28;11596;-71
2021/12/16 12:28:33;;;;;;;;;35.75;32.00;;;;;3.70;85.87;101875.13;5053835;28;11604;-71
2021/12/16 12:31:32;;;;;;;;;27.50;27.50;;;;;3.76;85.61;101878.75;5052746;28;11635;-69
2021/12/16 12:34:16;;;;;;;;;63.00;50.00;;;;;3.84;84.96;101884.59;5053924;28;11608;-69
2021/12/16 12:37:16;;;;;;;;;31.25;26.50;;;;;3.82;85.00;101880.44;5053365;28;11617;-70
2021/12/16 12:40:17;;;;;;;;;27.75;24.75;;;;;3.69;84.71;101886.34;5034207;28;12347;-70
2021/12/16 12:43:14;;;;;;;;;17.25;17.25;;;;;3.66;84.76;101886.81;5052707;28;11629;-69
2021/12/16 12:45:42;;;;;;;;;25.00;24.25;;;;;3.72;84.07;101878.44;5053831;28;11538;-70
2021/12/16 12:48:15;;;;;;;;;23.25;23.25;;;;;3.72;85.03;101877.59;5053892;28;11483;-70
2021/12/16 12:50:47;;;;;;;;;45.67;43.67;;;;;3.77;84.72;101870.28;5053863;28;11517;-69
2021/12/16 12:53:19;;;;;;;;;28.50;26.50;;;;;3.67;84.41;101866.59;5053720;28;11555;-70
2021/12/16 12:55:49;;;;;;;;;33.25;33.00;;;;;3.68;84.92;101877.31;5052212;28;11552;-70
2021/12/16 12:58:20;;;;;;;;;31.00;31.00;;;;;3.78;84.79;101880.16;5053257;28;11639;-69
2021/12/16 13:00:56;;;;;;;;;48.50;37.25;;;;;3.84;85.12;101881.03;5053440;28;11686;-70
2021/12/16 13:04:03;;;;;;;;;38.25;36.75;;;;;3.86;84.75;101876.13;5052171;28;11661;-71
2021/12/16 13:07:08;;;;;;;;;35.75;35.25;;;;;3.92;84.54;101877.00;5052424;28;11611;-70
2021/12/16 13:10:13;;;;;;;;;38.25;37.25;;;;;3.82;84.21;101883.19;5052712;28;11609;-70
2021/12/16 13:13:35;;;;;;;;;30.75;27.25;;;;;3.68;84.52;101884.66;5052003;28;11661;-70
2021/12/16 13:16:55;;;;;;;;;30.50;28.00;;;;;3.73;84.66;101877.34;5040011;28;11635;-70
2021/12/16 13:29:12;;;;;;;;;40.75;40.00;;;;;3.83;84.74;101876.63;5053018;28;11717;-71
2021/12/16 13:32:06;;;;;;;;;28.00;26.50;;;;;3.69;84.30;101880.88;5052578;28;11580;-71
2021/12/16 13:34:57;;;;;;;;;31.25;31.25;;;;;3.88;84.34;101880.25;5052100;28;12438;-72
2021/12/16 13:37:45;;;;;;;;;25.25;25.25;;;;;3.59;84.44;101870.59;5068017;28;12813;-70
2021/12/16 13:40:14;;;;;;;;;31.75;31.75;;;;;3.79;84.27;101870.03;5029156;28;12290;-71
2021/12/16 13:43:03;;;;;;;;;28.75;28.25;;;;;3.78;84.64;101869.19;5065883;28;11562;-70
2021/12/16 13:46:16;;;;;;;;;37.25;33.50;;;;;3.76;84.33;101865.06;5052047;28;12342;-70
2021/12/16 14:03:50;;;;;;;;;38.75;35.50;;;;;3.65;85.85;101863.28;5052789;28;11532;-73
2021/12/16 14:06:40;;;;;;;;;28.75;28.75;;;;;3.60;85.64;101856.69;5052974;28;11548;-73
2021/12/16 14:09:29;;;;;;;;;35.50;32.50;;;;;3.65;86.15;101855.09;5033394;28;11678;-72
2021/12/16 14:17:39;;;;;;;;;30.00;30.00;;;;;3.37;86.45;101854.19;5040407;28;11625;-72
2021/12/16 14:24:10;;;;;;;;;47.00;44.33;;;;;3.54;86.48;101849.50;5052517;28;11690;-72
2021/12/16 14:27:20;;;;;;;;;28.75;26.25;;;;;3.24;86.30;101857.31;5041385;28;11643;-71
2021/12/16 14:45:19;;;;;;;;;36.75;36.00;;;;;3.21;86.61;101838.69;5055945;28;11542;-72
2021/12/16 14:48:25;;;;;;;;;33.00;31.75;;;;;3.17;86.58;101830.16;5055022;28;11671;-72
2021/12/16 14:51:11;;;;;;;;;30.00;28.50;;;;;3.16;86.63;101835.91;5071015;28;11623;-72
2021/12/16 14:54:08;;;;;;;;;25.00;25.00;;;;;3.31;86.59;101839.66;5041667;28;11537;-72
2021/12/16 14:57:03;;;;;;;;;35.25;34.50;;;;;3.43;86.08;101833.22;5042749;28;11535;-72
2021/12/16 14:59:31;;;;;;;;;61.00;49.00;;;;;3.48;85.91;101828.63;5055865;28;11554;-73
2021/12/16 15:02:00;;;;;;;;;53.00;48.00;;;;;3.48;86.02;101834.09;5071150;28;11643;-72
2021/12/16 15:04:34;;;;;;;;;69.00;53.00;;;;;3.46;85.78;101825.34;5039303;28;12301;-72
2021/12/16 15:07:04;;;;;;;;;82.67;64.33;;;;;3.49;85.84;101816.59;5056323;28;8858;-72
2021/12/16 15:09:36;;;;;;;;;32.50;32.00;;;;;3.43;85.47;101822.28;5055673;28;8905;-72
2021/12/16 15:12:46;;;;;;;;;68.00;56.00;;;;;3.35;86.36;101823.53;5054395;28;12444;-72
2021/12/16 15:16:06;;;;;;;;;65.33;52.00;;;;;3.27;85.79;101824.81;5042906;28;8847;-72
2021/12/16 15:45:47;;;;;;;;;37.25;36.00;;;;;3.18;86.15;101820.88;5053973;28;11590;-72
2021/12/16 15:48:23;;;;;;;;;61.00;50.67;;;;;3.31;85.99;101817.78;5037865;28;11636;-72
2021/12/16 15:51:23;;;;;;;;;38.50;36.00;;;;;3.02;86.27;101817.13;5039962;28;12245;-72
2021/12/16 15:54:19;;;;;;;;;40.00;38.67;;;;;3.24;86.45;101817.13;5054512;28;11700;-72
2021/12/16 15:57:16;;;;;;;;;49.33;45.33;;;;;3.23;86.72;101820.97;5053618;28;12502;-72
2021/12/16 16:00:17;;;;;;;;;61.33;50.67;;;;;3.26;86.57;101822.34;5040130;28;11609;-72
2021/12/16 16:03:14;;;;;;;;;38.33;37.67;;;;;3.36;86.01;101822.47;5056523;28;8836;-72
2021/12/16 16:06:12;;;;;;;;;57.33;50.33;;;;;3.47;85.78;101820.69;5054564;28;11568;-72
2021/12/16 16:09:10;;;;;;;;;38.00;36.50;;;;;3.46;86.10;101806.19;5053139;28;11483;-72
2021/12/16 16:11:51;;;;;;;;;56.00;46.67;;;;;3.42;86.21;101815.97;5062164;28;11522;-71
2021/12/16 16:14:23;;;;;;;;;46.00;42.33;;;;;3.37;85.88;101807.69;5034526;28;12326;-72
2021/12/16 16:17:24;;;;;;;;;57.33;47.33;;;;;3.36;85.99;101803.31;5063032;28;11558;-72
2021/12/16 16:19:55;;;;;;;;;52.33;45.67;;;;;3.38;85.95;101790.25;5054384;28;11568;-72
2021/12/16 16:22:23;;;;;;;;;56.67;45.67;;;;;3.40;85.78;101792.72;5037054;28;11530;-73
2021/12/16 16:24:53;;;;;;;;;65.33;53.33;;;;;3.26;85.83;101789.53;5054123;28;11496;-71
2021/12/16 16:27:29;;;;;;;;;60.33;44.33;;;;;3.45;85.58;101779.94;5054112;28;8856;-71
2021/12/16 16:30:25;;;;;;;;;49.00;40.00;;;;;3.35;85.80;101772.41;5053023;28;11518;-72
2021/12/16 16:33:23;;;;;;;;;69.00;54.00;;;;;3.20;86.09;101774.97;5064123;28;11543;-72
2021/12/16 16:35:58;;;;;;;;;56.67;46.00;;;;;3.34;86.19;101767.22;5044881;28;11643;-72
2021/12/16 16:39:03;;;;;;;;;66.00;55.33;;;;;3.34;86.19;101762.56;5057398;28;11566;-72
2021/12/16 16:41:55;;;;;;;;;113.00;104.00;;;;;3.32;86.41;101759.25;5056174;28;8880;-72
2021/12/16 16:44:25;;;;;;;;;60.00;49.00;;;;;3.34;85.81;101757.09;5025690;28;8858;-72
2021/12/16 16:47:13;;;;;;;;;98.00;71.33;;;;;3.25;86.67;101749.59;5047249;28;8867;-73
2021/12/16 16:50:14;;;;;;;;;70.67;60.33;;;;;3.31;86.56;101751.31;5059008;28;8835;-71
2021/12/16 16:53:10;;;;;;;;;69.00;56.33;;;;;3.29;86.56;101748.81;5064099;28;8826;-72
2021/12/16 16:56:06;;;;;;;;;58.00;45.33;;;;;3.39;86.68;101742.66;5052537;28;8883;-73
2021/12/16 16:59:06;;;;;;;;;64.00;47.33;;;;;3.37;86.22;101746.72;5052422;28;8862;-72
2021/12/16 17:02:19;;;;;;;;;67.33;51.33;;;;;3.39;86.52;101747.31;5052636;28;8871;-72
2021/12/16 17:05:21;;;;;;;;;71.33;56.00;;;;;3.34;86.17;101746.16;5052475;28;8911;-72